Time;durP1;ratioP1;P1;durP2;ratioP2;P2;SDS_P1;SDS_P2;PMS_P1;PMS_P2;Temp;Humidity;BMP_temperature;BMP_pressure;BME280_temperature;BME280_humidity;BME280_pressure;Samples;Min_cycle;Max_cycle;Signal;HPM_P1;HPM_P2
2021/04/15 00:00:34;;;;;;;21.30;5.57;;;;;;;1.83;73.76;102995.94;5098784;28;20512;-65
2021/04/15 00:03:02;;;;;;;20.95;5.03;;;;;;;1.79;74.02;103000.81;5105653;28;20060;-65
2021/04/15 00:05:30;;;;;;;21.90;5.25;;;;;;;1.69;74.44;103000.13;5098412;28;20059;-65
2021/04/15 00:07:56;;;;;;;20.60;5.38;;;;;;;1.66;74.89;102994.69;5097707;28;20046;-65
2021/04/15 00:10:31;;;;;;;20.73;5.60;;;;;;;1.61;73.96;102996.03;5104783;28;20052;-65
2021/04/15 00:12:58;;;;;;;19.95;5.35;;;;;;;1.55;75.25;102999.09;5098307;28;20107;-65
2021/04/15 00:15:24;;;;;;;18.92;5.38;;;;;;;1.57;75.48;102996.59;5104980;28;20074;-65
2021/04/15 00:17:49;;;;;;;21.13;5.68;;;;;;;1.58;75.19;103002.75;5102565;28;20028;-65
2021/04/15 00:20:15;;;;;;;19.25;5.30;;;;;;;1.55;75.17;103003.41;5103845;28;20418;-65
2021/04/15 00:22:40;;;;;;;21.98;5.63;;;;;;;1.54;75.57;102991.16;5103718;28;20035;-65
2021/04/15 00:25:07;;;;;;;20.45;5.65;;;;;;;1.60;75.56;102995.94;5102247;28;20039;-65
2021/04/15 00:27:32;;;;;;;19.52;5.35;;;;;;;1.57;75.72;102986.16;5104971;28;20107;-65
2021/04/15 00:29:57;;;;;;;19.05;5.25;;;;;;;1.62;75.87;103000.47;5101809;28;20154;-65
2021/04/15 00:32:23;;;;;;;19.85;5.47;;;;;;;1.68;75.73;102989.59;5104553;28;20076;-65
2021/04/15 00:34:48;;;;;;;21.27;5.40;;;;;;;1.72;75.18;102991.66;5102964;28;20035;-65
2021/04/15 00:37:14;;;;;;;19.50;5.63;;;;;;;1.77;75.03;102984.16;5103207;28;20059;-65
2021/04/15 00:39:39;;;;;;;19.33;5.38;;;;;;;1.73;75.51;102989.16;5103423;28;20136;-65
2021/04/15 00:42:05;;;;;;;20.45;5.75;;;;;;;1.78;76.03;102983.34;5101775;28;20032;-65
2021/04/15 00:44:30;;;;;;;20.73;5.47;;;;;;;1.81;75.89;102975.78;5104744;28;20515;-65
2021/04/15 00:47:01;;;;;;;21.40;5.47;;;;;;;1.86;75.98;102975.28;5101911;28;20078;-64
2021/04/15 00:49:32;;;;;;;20.48;5.35;;;;;;;1.91;75.75;102967.84;5097296;28;20028;-64
2021/04/15 00:52:01;;;;;;;17.52;5.00;;;;;;;1.98;75.08;102966.56;5097870;28;20035;-64
2021/04/15 00:54:32;;;;;;;19.95;5.65;;;;;;;1.97;75.39;102968.28;5097286;28;20024;-64
2021/04/15 00:56:58;;;;;;;18.85;5.43;;;;;;;2.00;75.35;102971.09;5097603;28;20364;-64
2021/04/15 00:59:25;;;;;;;19.65;5.70;;;;;;;2.07;75.31;102960.31;5104279;28;20023;-64
2021/04/15 01:01:51;;;;;;;20.13;5.63;;;;;;;2.13;75.59;102962.47;5101849;28;20042;-64
2021/04/15 01:04:17;;;;;;;19.75;5.38;;;;;;;2.21;75.17;102966.56;5103531;28;20044;-64
2021/04/15 01:06:42;;;;;;;20.30;5.47;;;;;;;2.25;75.06;102960.72;5103263;28;20455;-64
2021/04/15 01:09:07;;;;;;;20.13;5.53;;;;;;;2.27;75.16;102958.22;5104660;28;20028;-64
2021/04/15 01:12:06;;;;;;;21.45;6.20;;;;;;;2.21;74.44;102957.78;5108876;28;20027;-64
2021/04/15 01:14:53;;;;;;;22.02;5.95;;;;;;;2.17;75.48;102960.97;5101601;28;20428;-64
2021/04/15 01:17:42;;;;;;;18.85;5.10;;;;;;;2.19;74.65;102959.41;5106188;28;20081;-64
2021/04/15 01:20:43;;;;;;;19.35;5.60;;;;;;;2.10;74.67;102957.03;5103452;28;20027;-64
2021/04/15 01:23:23;;;;;;;19.83;5.50;;;;;;;2.08;74.84;102956.00;5103462;28;20467;-64
2021/04/15 01:26:03;;;;;;;21.08;5.63;;;;;;;2.06;75.25;102953.28;5105969;28;20531;-64
2021/04/15 01:29:03;;;;;;;19.98;5.55;;;;;;;2.08;75.59;102954.31;5101144;28;20471;-63
2021/04/15 01:31:57;;;;;;;20.48;5.50;;;;;;;2.14;74.81;102952.94;5104923;28;20531;-64
2021/04/15 01:34:31;;;;;;;20.05;5.55;;;;;;;2.14;75.85;102953.84;5107732;28;20435;-64
2021/04/15 01:37:22;;;;;;;21.75;5.60;;;;;;;2.11;74.88;102955.31;5104961;28;20488;-64
2021/04/15 01:40:05;;;;;;;23.17;5.95;;;;;;;2.02;75.85;102948.63;5105835;28;20043;-64
2021/04/15 01:42:41;;;;;;;19.52;5.80;;;;;;;1.97;76.28;102952.63;5100915;28;20093;-65
2021/04/15 01:45:11;;;;;;;19.80;5.85;;;;;;;1.91;76.68;102960.00;5102488;28;20044;-64
2021/04/15 01:47:50;;;;;;;20.08;5.43;;;;;;;1.88;76.39;102962.41;5107355;28;20032;-64
2021/04/15 01:50:28;;;;;;;21.20;5.80;;;;;;;1.87;76.36;102955.34;5106349;28;20062;-64
2021/04/15 01:52:59;;;;;;;20.75;5.80;;;;;;;1.89;76.91;102954.69;5104918;28;20486;-64
2021/04/15 01:55:32;;;;;;;20.75;5.45;;;;;;;1.88;77.13;102957.19;5107636;28;20031;-64
2021/04/15 01:58:21;;;;;;;18.90;5.35;;;;;;;1.83;75.75;102955.91;5100303;28;20021;-64
2021/04/15 02:00:56;;;;;;;20.65;5.60;;;;;;;1.67;76.73;102959.97;5104800;28;20059;-64
2021/04/15 02:03:30;;;;;;;20.52;5.90;;;;;;;1.48;76.87;102959.41;5105047;28;20106;-64
2021/04/15 02:06:14;;;;;;;20.77;5.78;;;;;;;1.39;77.90;102957.03;5107411;28;20039;-64
2021/04/15 02:08:48;;;;;;;20.58;6.00;;;;;;;1.34;78.16;102961.91;5102624;28;20027;-64
2021/04/15 02:11:23;;;;;;;19.85;5.63;;;;;;;1.31;78.09;102961.66;5106135;28;20098;-64
2021/04/15 02:13:50;;;;;;;21.70;5.88;;;;;;;1.28;78.49;102951.00;5105274;28;20024;-64
2021/04/15 02:16:20;;;;;;;19.45;5.65;;;;;;;1.22;77.90;102958.34;5105349;28;20024;-64
2021/04/15 02:18:53;;;;;;;20.45;5.80;;;;;;;1.20;77.97;102958.22;5105757;28;20072;-64
2021/04/15 02:21:27;;;;;;;19.70;5.68;;;;;;;1.20;78.32;102968.66;5104613;28;20019;-64
2021/04/15 02:24:01;;;;;;;22.73;5.68;;;;;;;1.16;78.35;102956.16;5107189;28;20040;-65
2021/04/15 02:26:33;;;;;;;21.13;5.80;;;;;;;1.09;78.74;102966.91;5104115;28;20024;-63
2021/04/15 02:29:08;;;;;;;20.98;6.13;;;;;;;1.08;79.11;102961.59;5099694;28;20056;-64
2021/04/15 02:31:41;;;;;;;21.02;6.00;;;;;;;1.10;79.49;102966.13;5100765;28;20020;-64
2021/04/15 02:34:11;;;;;;;19.90;6.10;;;;;;;1.15;79.65;102963.88;5106738;28;20020;-63
2021/04/15 02:36:51;;;;;;;20.52;6.13;;;;;;;1.17;78.84;102954.50;5104302;28;20020;-64
2021/04/15 02:39:21;;;;;;;20.65;6.28;;;;;;;1.21;79.89;102953.94;5105286;28;20020;-65
2021/04/15 02:41:50;;;;;;;20.98;6.50;;;;;;;1.23;79.71;102959.28;5105359;28;20052;-64
2021/04/15 02:44:30;;;;;;;22.10;6.07;;;;;;;1.24;79.29;102962.00;5105205;28;20370;-64
2021/04/15 02:47:03;;;;;;;21.67;5.97;;;;;;;1.19;80.03;102960.72;5106799;28;20023;-64
2021/04/15 02:49:31;;;;;;;21.77;6.15;;;;;;;1.17;80.37;102957.09;5099639;28;20031;-65
2021/04/15 02:52:12;;;;;;;19.73;5.82;;;;;;;1.17;80.25;102962.31;5106877;28;20023;-65
2021/04/15 02:54:43;;;;;;;21.38;6.07;;;;;;;1.09;80.62;102959.09;5101335;28;20031;-65
2021/04/15 02:57:12;;;;;;;19.67;5.68;;;;;;;1.02;80.43;102954.19;5106299;28;20087;-65
2021/04/15 03:00:00;;;;;;;20.20;5.65;;;;;;;0.98;79.70;102960.00;5104280;28;20115;-65
2021/04/15 03:02:29;;;;;;;19.73;6.03;;;;;;;0.97;80.99;102958.16;5103502;28;20414;-65
2021/04/15 03:04:58;;;;;;;20.27;6.38;;;;;;;0.95;81.01;102963.25;5106402;28;20110;-65
2021/04/15 03:07:26;;;;;;;20.35;6.00;;;;;;;0.95;81.06;102958.06;5103768;28;20473;-65
2021/04/15 03:09:52;;;;;;;21.83;6.65;;;;;;;0.92;81.13;102956.88;5105795;28;20028;-65
2021/04/15 03:12:23;;;;;;;21.23;5.88;;;;;;;0.90;81.34;102959.38;5104252;27;20466;-65
2021/04/15 03:15:05;;;;;;;21.70;6.22;;;;;;;0.90;80.60;102956.78;5105140;28;20214;-65
2021/04/15 03:17:32;;;;;;;21.30;6.50;;;;;;;0.83;81.07;102959.69;5099031;28;20073;-65
2021/04/15 03:20:01;;;;;;;22.38;6.43;;;;;;;0.81;81.02;102953.47;5106265;28;20019;-65
2021/04/15 03:22:52;;;;;;;22.10;6.35;;;;;;;0.70;80.47;102952.66;5103195;28;20092;-65
2021/04/15 03:25:18;;;;;;;21.80;6.60;;;;;;;0.59;83.10;102945.69;5102393;28;20487;-65
2021/04/15 03:27:56;;;;;;;20.65;6.25;;;;;;;0.53;85.07;102953.91;5104471;28;20028;-65
2021/04/15 03:30:49;;;;;;;23.65;6.68;;;;;;;0.53;85.57;102951.31;5105306;28;20028;-65
2021/04/15 03:33:23;;;;;;;22.25;6.88;;;;;;;0.60;84.69;102951.00;5102302;28;20039;-65
2021/04/15 03:35:48;;;;;;;24.70;6.70;;;;;;;0.73;83.83;102946.75;5103797;28;20114;-65
2021/04/15 03:38:22;;;;;;;23.38;6.93;;;;;;;0.82;85.19;102950.09;5104109;28;20482;-65
2021/04/15 03:40:52;;;;;;;21.80;6.43;;;;;;;0.85;83.71;102946.00;5103742;28;20044;-64
2021/04/15 03:43:40;;;;;;;21.77;6.85;;;;;;;0.83;83.07;102949.28;5104565;28;20044;-65
2021/04/15 03:46:54;;;;;;;24.58;7.50;;;;;;;0.80;83.26;102957.78;5099501;28;20024;-65
2021/04/15 03:49:22;;;;;;;;;;;;;;;0.84;79.02;102951.09;5061513;28;20033;-65
2021/04/15 03:52:02;;;;;;;22.05;6.45;;;;;;;0.94;81.83;102942.31;5061218;28;19974;-65
2021/04/15 03:54:43;;;;;;;24.35;6.95;;;;;;;1.02;81.72;102943.78;5062820;28;20169;-65
2021/04/15 03:57:14;;;;;;;20.95;6.85;;;;;;;1.06;82.50;102944.94;5060126;28;20039;-65
2021/04/15 03:59:52;;;;;;;23.88;6.72;;;;;;;1.12;82.61;102948.94;5061978;28;20511;-65
2021/04/15 04:02:34;;;;;;;24.55;7.13;;;;;;;1.19;82.15;102950.28;5061410;28;20044;-65
2021/04/15 04:05:15;;;;;;;23.05;7.00;;;;;;;1.23;82.21;102949.75;5059386;28;20036;-65
2021/04/15 04:07:52;;;;;;;24.08;7.38;;;;;;;1.25;82.34;102953.34;5060412;28;20119;-65
2021/04/15 04:10:22;;;;;;;22.83;7.00;;;;;;;1.23;81.79;102949.75;5060997;28;20067;-65
2021/04/15 04:13:15;;;;;;;21.70;6.75;;;;;;;1.23;81.76;102948.84;5061062;28;20041;-65
2021/04/15 04:15:44;;;;;;;22.58;7.25;;;;;;;1.18;82.57;102945.88;5060358;28;20033;-65
2021/04/15 04:18:22;;;;;;;24.83;7.68;;;;;;;1.13;83.07;102950.72;5061511;28;20477;-65
2021/04/15 04:20:47;;;;;;;24.20;7.70;;;;;;;1.03;83.27;102946.53;5061028;28;20067;-65
2021/04/15 04:23:36;;;;;;;22.65;7.30;;;;;;;0.96;82.42;102952.06;5061496;28;20052;-65
2021/04/15 04:26:27;;;;;;;22.63;7.10;;;;;;;0.89;82.38;102959.25;5087621;28;20042;-65
2021/04/15 04:29:01;;;;;;;22.10;7.07;;;;;;;0.83;83.14;102952.81;5103170;28;20036;-65
2021/04/15 04:31:32;;;;;;;26.10;7.63;;;;;;;0.80;84.60;102957.78;5101886;28;20103;-65
2021/04/15 04:33:58;;;;;;;23.15;7.53;;;;;;;0.88;84.52;102958.38;5104871;28;20458;-65
2021/04/15 04:36:26;;;;;;;21.70;7.10;;;;;;;1.00;84.61;102964.50;5102110;28;20027;-65
2021/04/15 04:38:53;;;;;;;23.27;7.53;;;;;;;1.10;84.22;102966.13;5104014;28;20031;-65
2021/04/15 04:41:47;;;;;;;23.02;7.82;;;;;;;1.13;83.46;102968.06;5102546;28;20047;-65
2021/04/15 04:44:35;;;;;;;22.15;7.43;;;;;;;1.16;82.42;102968.31;5099928;28;20044;-64
2021/04/15 04:47:37;;;;;;;22.58;7.28;;;;;;;1.13;82.40;102962.88;5097663;28;20121;-63
2021/04/15 04:50:13;;;;;;;26.40;8.65;;;;;;;1.08;83.21;102958.97;5101218;28;20021;-63
2021/04/15 04:52:39;;;;;;;25.67;7.85;;;;;;;1.02;84.35;102962.94;5098923;28;20031;-63
2021/04/15 04:55:36;;;;;;;24.40;7.85;;;;;;;1.03;82.98;102963.84;5104934;28;20459;-64
2021/04/15 04:58:07;;;;;;;26.88;7.95;;;;;;;1.06;83.80;102971.88;5097572;28;20145;-65
2021/04/15 05:00:40;;;;;;;22.13;7.35;;;;;;;1.05;84.48;102970.09;5097717;28;20077;-63
2021/04/15 05:03:05;;;;;;;24.83;7.13;;;;;;;1.07;84.59;102975.44;5098016;28;20521;-64
2021/04/15 05:05:32;;;;;;;23.88;7.20;;;;;;;1.08;84.88;102969.41;5104526;28;20059;-64
2021/04/15 05:08:03;;;;;;;25.08;7.70;;;;;;;1.12;84.86;102975.00;5101288;28;20100;-63
2021/04/15 05:10:31;;;;;;;25.58;8.65;;;;;;;1.15;85.77;102975.22;5104379;28;20394;-63
2021/04/15 05:13:28;;;;;;;23.83;8.05;;;;;;;1.19;83.49;102969.47;5101327;28;20531;-64
2021/04/15 05:15:54;;;;;;;25.75;7.95;;;;;;;1.26;85.23;102973.44;5080320;28;20032;-64
2021/04/15 05:18:21;;;;;;;27.35;9.02;;;;;;;1.33;85.63;102986.13;5079842;28;20126;-64
2021/04/15 05:20:48;;;;;;;25.75;9.27;;;;;;;1.43;84.86;102981.59;5080322;28;20044;-64
2021/04/15 05:23:24;;;;;;;24.65;9.00;;;;;;;1.49;83.85;102987.31;5080474;28;20475;-64
2021/04/15 05:25:52;;;;;;;27.58;8.95;;;;;;;1.59;84.63;102989.81;5063653;28;20029;-64
2021/04/15 05:28:19;;;;;;;25.92;8.77;;;;;;;1.69;84.15;102989.72;5080351;28;20032;-64
2021/04/15 05:30:51;;;;;;;24.15;8.05;;;;;;;1.76;83.81;102992.75;5080034;28;20032;-64
2021/04/15 05:33:23;;;;;;;24.50;7.72;;;;;;;1.78;83.14;102997.31;5080255;28;20048;-64
2021/04/15 05:36:23;;;;;;;23.30;7.70;;;;;;;1.85;81.86;102998.66;5080382;28;20024;-64
2021/04/15 05:38:52;;;;;;;24.20;8.05;;;;;;;1.83;82.16;102997.66;5080456;28;20037;-65
2021/04/15 05:41:36;;;;;;;23.88;8.10;;;;;;;1.85;82.60;103001.25;5079702;28;20079;-64
2021/04/15 05:44:07;;;;;;;25.02;8.63;;;;;;;1.89;83.71;103005.91;5078064;28;20502;-64
2021/04/15 05:46:45;;;;;;;24.77;8.35;;;;;;;2.04;82.53;102996.63;5067880;28;20123;-65
2021/04/15 05:49:22;;;;;;;24.77;8.15;;;;;;;2.17;82.02;102997.50;5070378;28;20032;-65
2021/04/15 05:51:52;;;;;;;24.45;8.73;;;;;;;2.30;81.35;102994.09;5069643;28;20486;-65
2021/04/15 05:54:20;;;;;;;25.15;8.48;;;;;;;2.40;81.30;102987.06;5096620;28;20028;-66
2021/04/15 05:57:04;;;;;;;23.40;8.60;;;;;;;2.55;79.83;102992.47;5102407;28;20111;-64
2021/04/15 05:59:38;;;;;;;25.30;9.35;;;;;;;2.68;79.83;102999.47;5098904;28;20020;-65
2021/04/15 06:02:09;;;;;;;25.17;9.43;;;;;;;2.85;79.93;102999.75;5105081;28;20384;-66
2021/04/15 06:04:40;;;;;;;25.67;9.60;;;;;;;2.92;78.97;102999.38;5103295;28;20027;-65
2021/04/15 06:07:07;;;;;;;25.38;10.07;;;;;;;2.99;79.65;102999.00;5100754;28;20045;-66
2021/04/15 06:09:32;;;;;;;26.33;10.20;;;;;;;3.08;78.87;102997.03;5099347;28;20504;-67
2021/04/15 06:12:26;;;;;;;26.95;11.00;;;;;;;3.26;77.91;103007.84;5097236;28;20107;-66
2021/04/15 06:14:57;;;;;;;25.25;10.02;;;;;;;3.30;76.86;103009.84;5103030;28;20115;-66
2021/04/15 06:17:31;;;;;;;25.65;10.60;;;;;;;3.31;78.76;103010.78;5099927;28;20086;-67
2021/04/15 06:20:20;;;;;;;25.17;10.40;;;;;;;3.25;79.48;103008.66;5101530;28;20035;-66
2021/04/15 06:22:51;;;;;;;25.52;10.85;;;;;;;3.32;79.02;103012.59;5097807;28;20023;-66
2021/04/15 06:25:19;;;;;;;28.42;10.93;;;;;;;3.43;79.49;103014.22;5101059;28;20389;-66
2021/04/15 06:27:48;;;;;;;25.05;10.60;;;;;;;3.55;78.07;103010.63;5098937;28;20089;-65
2021/04/15 06:30:22;;;;;;;25.27;10.43;;;;;;;3.48;78.43;103015.47;5098865;28;20035;-65
2021/04/15 06:32:54;;;;;;;24.52;10.32;;;;;;;3.47;78.46;103013.63;5096845;28;20028;-66
2021/04/15 06:35:31;;;;;;;25.35;10.55;;;;;;;3.53;78.44;103012.25;5096812;28;20061;-66
2021/04/15 06:38:04;;;;;;;23.80;9.63;;;;;;;3.60;79.07;103010.16;5100525;28;20102;-66
2021/04/15 06:40:54;;;;;;;26.20;8.80;;;;;;;3.74;76.94;103008.47;5099955;28;20047;-66
2021/04/15 06:43:43;;;;;;;24.48;9.13;;;;;;;3.90;76.27;103010.34;5099767;28;20032;-66
2021/04/15 06:46:11;;;;;;;23.08;8.18;;;;;;;3.94;75.10;103007.16;5102858;28;20031;-66
2021/04/15 06:48:43;;;;;;;23.13;8.25;;;;;;;3.94;74.89;103007.16;5098741;28;20028;-66
2021/04/15 06:51:46;;;;;;;23.73;9.13;;;;;;;4.06;75.38;103006.16;5095731;28;20348;-66
2021/04/15 06:54:30;;;;;;;;;;;;;;;4.29;75.56;103010.25;5100287;28;20046;-66
2021/04/15 06:57:22;;;;;;;23.20;7.93;;;;;;;4.40;73.96;103009.25;5098228;28;19946;-65
2021/04/15 07:00:06;;;;;;;24.50;8.13;;;;;;;4.54;73.94;103008.41;5098724;28;20026;-65
2021/04/15 07:02:56;;;;;;;23.13;8.45;;;;;;;4.76;74.23;103011.47;5099504;28;20470;-65
2021/04/15 07:05:26;;;;;;;21.27;6.93;;;;;;;4.84;72.92;103015.50;5100200;28;20031;-65
2021/04/15 07:08:03;;;;;;;21.70;6.65;;;;;;;4.97;72.30;103009.31;5104194;28;20087;-65
2021/04/15 07:10:46;;;;;;;20.33;6.80;;;;;;;4.98;70.92;103012.00;5100031;28;20019;-67
2021/04/15 07:13:48;;;;;;;21.30;6.40;;;;;;;5.08;70.77;103010.84;5104421;28;20036;-65
2021/04/15 07:16:26;;;;;;;21.52;7.10;;;;;;;5.12;71.10;103014.56;5101102;28;20351;-65
2021/04/15 07:19:14;;;;;;;23.20;7.82;;;;;;;5.49;69.87;103014.16;5101124;28;20478;-64
2021/04/15 07:22:10;;;;;;;22.08;6.82;;;;;;;5.71;69.16;103021.63;5048784;28;20080;-66
2021/04/15 07:25:03;;;;;;;22.13;6.93;;;;;;;5.85;68.96;103022.41;5050434;28;20031;-65
2021/04/15 07:28:01;;;;;;;21.80;6.45;;;;;;;6.01;68.20;103016.34;5050589;28;20120;-64
2021/04/15 07:31:00;;;;;;;21.05;6.70;;;;;;;6.15;67.89;103023.31;5048788;28;20171;-65
2021/04/15 07:33:46;;;;;;;20.27;6.75;;;;;;;6.29;66.85;103024.06;5047846;28;20044;-65
2021/04/15 07:36:42;;;;;;;20.95;6.88;;;;;;;6.50;66.63;103021.78;5051982;28;20399;-65
2021/04/15 07:39:20;;;;;;;20.65;6.50;;;;;;;6.59;65.02;103017.00;5048922;28;20436;-65
2021/04/15 07:42:11;;;;;;;20.70;6.80;;;;;;;6.76;66.16;103024.94;5046649;28;20106;-66
2021/04/15 07:44:55;;;;;;;19.90;6.10;;;;;;;6.86;64.63;103023.69;4986735;28;20172;-65
2021/04/15 07:47:38;;;;;;;21.35;6.45;;;;;;;6.87;64.89;103018.53;4984487;28;20100;-66
2021/04/15 07:50:20;;;;;;;20.27;6.32;;;;;;;7.03;64.53;103022.00;4983046;28;20545;-65
2021/04/15 07:53:13;;;;;;;20.65;5.88;;;;;;;7.19;63.82;103023.72;4985982;28;20167;-65
2021/04/15 07:56:05;;;;;;;20.75;6.20;;;;;;;7.12;63.83;103025.09;4987031;28;20043;-64
2021/04/15 07:58:41;;;;;;;20.58;6.20;;;;;;;7.26;63.70;103034.63;5011446;28;20041;-65
2021/04/15 08:01:54;;;;;;;19.70;5.82;;;;;;;7.38;63.21;103036.09;5048614;28;20520;-64
2021/04/15 08:04:43;;;;;;;21.73;5.35;;;;;;;7.50;62.05;103035.03;4970935;28;20046;-63
2021/04/15 08:07:43;;;;;;;20.45;5.90;;;;;;;7.70;62.82;103039.50;4969728;28;20030;-64
2021/04/15 08:10:42;;;;;;;19.50;5.70;;;;;;;7.90;61.60;103038.78;4970667;28;20073;-63
2021/04/15 08:13:20;;;;;;;21.58;6.15;;;;;;;8.03;60.24;103032.41;4967972;28;20545;-63
2021/04/15 08:16:06;;;;;;;21.13;6.20;;;;;;;8.22;60.12;103038.59;4969718;28;20085;-63
2021/04/15 08:19:18;;;;;;;20.60;6.15;;;;;;;8.24;60.15;103040.44;4969149;28;20038;-63
2021/04/15 08:21:54;;;;;;;20.70;6.28;;;;;;;8.34;59.17;103039.16;4952236;28;20045;-64
2021/04/15 08:24:25;;;;;;;21.25;5.75;;;;;;;8.38;57.86;103041.13;4970059;28;20180;-63
2021/04/15 08:27:30;;;;;;;20.02;6.03;;;;;;;8.43;58.70;103037.00;4970610;28;20131;-63
2021/04/15 08:30:14;;;;;;;19.90;5.78;;;;;;;8.43;59.25;103043.97;4969252;28;20050;-66
2021/04/15 08:32:52;;;;;;;20.55;6.07;;;;;;;8.31;58.32;103037.28;4967686;28;20518;-66
2021/04/15 08:35:33;;;;;;;21.95;6.28;;;;;;;8.79;57.69;103030.78;4964809;28;20047;-65
2021/04/15 08:38:13;;;;;;;20.25;5.95;;;;;;;9.27;56.00;103039.09;4969753;28;20096;-65
2021/04/15 08:40:50;;;;;;;21.35;5.63;;;;;;;9.30;54.32;103039.25;4995868;28;20498;-66
2021/04/15 08:43:33;;;;;;;20.38;5.50;;;;;;;9.49;54.55;103045.34;5045139;28;20025;-65
2021/04/15 08:46:12;;;;;;;19.08;5.45;;;;;;;9.40;53.88;103046.72;5048586;28;20132;-65
2021/04/15 08:49:03;;;;;;;18.63;5.13;;;;;;;9.41;54.49;103040.63;5048619;28;20025;-66
2021/04/15 08:52:00;;;;;;;18.38;5.30;;;;;;;9.07;55.85;103044.41;5046210;28;20091;-65
2021/04/15 08:54:58;;;;;;;19.20;5.45;;;;;;;9.40;54.85;103043.19;5048518;28;20112;-65
2021/04/15 08:57:58;;;;;;;19.92;5.60;;;;;;;9.80;53.71;103041.38;5062435;28;20443;-65
2021/04/15 09:00:33;;;;;;;19.08;5.18;;;;;;;9.85;51.61;103046.03;5099040;28;20481;-65
2021/04/15 09:03:11;;;;;;;19.73;5.78;;;;;;;10.01;52.76;103046.69;5099296;28;20031;-67
2021/04/15 09:06:07;;;;;;;22.45;5.75;;;;;;;10.05;52.44;103032.75;5100213;28;20024;-65
2021/04/15 09:08:59;;;;;;;18.90;5.95;;;;;;;10.15;52.40;103040.22;5095031;28;20046;-66
2021/04/15 09:12:06;;;;;;;19.25;6.05;;;;;;;9.94;52.34;103034.94;5093719;28;20029;-65
2021/04/15 09:15:05;;;;;;;19.17;5.60;;;;;;;9.71;53.27;103037.53;5067897;28;20044;-65
2021/04/15 09:17:38;;;;;;;19.98;5.75;;;;;;;9.58;52.40;103037.81;5068671;28;20031;-65
2021/04/15 09:20:16;;;;;;;20.10;6.10;;;;;;;9.37;52.25;103033.41;5068768;28;20446;-65
2021/04/15 09:23:06;;;;;;;16.60;4.88;;;;;;;9.39;49.73;103039.66;5068799;28;20102;-65
2021/04/15 09:25:45;;;;;;;17.85;4.70;;;;;;;9.49;49.69;103033.03;5068101;28;20128;-65
2021/04/15 09:28:43;;;;;;;16.63;4.88;;;;;;;10.02;50.65;103033.53;5070370;28;20390;-64
2021/04/15 09:31:50;;;;;;;18.27;4.80;;;;;;;10.17;49.57;103040.28;5072643;28;20111;-64
2021/04/15 09:34:37;;;;;;;18.80;5.18;;;;;;;10.86;48.41;103031.56;5071616;28;20085;-65
2021/04/15 09:37:47;;;;;;;17.88;4.70;;;;;;;11.68;46.66;103033.66;5071863;28;20040;-65
2021/04/15 09:40:34;;;;;;;18.73;4.95;;;;;;;11.92;44.32;103032.69;5075530;28;20120;-63
2021/04/15 09:43:13;;;;;;;17.58;4.30;;;;;;;11.57;44.06;103036.78;5072076;28;20048;-64
2021/04/15 09:46:05;;;;;;;16.65;4.15;;;;;;;11.51;41.52;103027.75;5072485;28;20171;-64
2021/04/15 09:48:59;;;;;;;15.10;4.10;;;;;;;11.63;44.28;103029.03;4972881;28;20140;-65
2021/04/15 09:52:08;;;;;;;12.73;4.03;;;;;;;12.72;43.44;103023.75;5008058;28;20436;-63
2021/04/15 09:54:45;;;;;;;17.08;4.47;;;;;;;13.20;41.10;103026.00;4972951;28;20047;-64
2021/04/15 09:57:17;;;;;;;17.48;4.60;;;;;;;12.85;41.76;103025.00;4973568;28;20167;-65
2021/04/15 09:59:48;;;;;;;18.20;4.90;;;;;;;12.36;42.05;103024.41;4973480;28;20039;-66
2021/04/15 10:02:44;;;;;;;19.50;5.10;;;;;;;12.48;43.38;103024.78;4972827;28;20527;-66
2021/04/15 10:05:15;;;;;;;17.63;4.95;;;;;;;12.42;42.72;103023.69;4972661;28;20071;-65
2021/04/15 10:07:51;;;;;;;20.45;5.10;;;;;;;12.52;43.19;103025.78;4973238;28;20059;-65
2021/04/15 10:10:32;;;;;;;17.70;4.80;;;;;;;12.58;42.92;103027.72;4973101;28;20034;-66
2021/04/15 10:13:03;;;;;;;16.05;4.70;;;;;;;12.39;42.25;103021.84;4972349;28;20097;-66
2021/04/15 10:15:52;;;;;;;17.17;4.93;;;;;;;12.13;42.77;103021.00;4974551;28;20467;-65
2021/04/15 10:18:39;;;;;;;18.88;4.95;;;;;;;12.20;43.99;103023.94;4972928;28;20150;-66
2021/04/15 10:21:42;;;;;;;17.23;4.80;;;;;;;12.84;41.58;103021.47;4972913;28;20096;-66
2021/04/15 10:24:26;;;;;;;17.00;4.70;;;;;;;12.51;40.16;103018.69;4972293;28;20058;-66
2021/04/15 10:27:24;;;;;;;16.27;4.32;;;;;;;12.05;42.79;103015.47;5028889;28;20033;-65
2021/04/15 10:30:16;;;;;;;17.38;4.40;;;;;;;11.60;42.30;103015.69;4975460;28;20085;-66
2021/04/15 10:32:50;;;;;;;16.80;4.50;;;;;;;11.09;42.95;103014.78;5035213;28;20041;-66
2021/04/15 10:36:04;;;;;;;18.40;4.57;;;;;;;10.90;44.27;103014.94;5035422;28;20409;-66
2021/04/15 10:39:03;;;;;;;16.70;4.50;;;;;;;10.87;43.13;103009.53;5034749;28;20065;-66
2021/04/15 10:41:43;;;;;;;16.85;4.88;;;;;;;10.79;45.27;103006.59;5032409;28;20049;-67
2021/04/15 10:44:27;;;;;;;17.38;4.97;;;;;;;11.33;44.15;103011.22;5031390;28;20374;-64
2021/04/15 10:47:20;;;;;;;15.80;4.65;;;;;;;14.43;39.17;103011.41;5034805;28;20485;-64
2021/04/15 10:49:57;;;;;;;;;;;;;;;17.32;35.12;103013.63;5037409;28;20040;-66
2021/04/15 10:52:44;;;;;;;16.83;4.30;;;;;;;18.62;29.34;103008.44;5035117;28;19913;-66
2021/04/15 10:55:15;;;;;;;15.93;4.35;;;;;;;18.26;29.05;103009.09;5034198;28;20038;-65
2021/04/15 10:57:41;;;;;;;15.25;4.28;;;;;;;16.60;30.71;103001.19;5031341;28;20124;-67
2021/04/15 11:00:26;;;;;;;14.82;4.10;;;;;;;16.23;33.06;103005.97;5034011;28;20034;-65
2021/04/15 11:02:57;;;;;;;15.15;4.20;;;;;;;16.51;32.41;103009.03;5034969;28;20072;-65
2021/04/15 11:05:24;;;;;;;13.35;3.85;;;;;;;18.13;28.47;103008.13;5061137;28;20131;-65
2021/04/15 11:07:54;;;;;;;15.70;4.00;;;;;;;18.73;27.73;103003.09;5101553;28;20418;-65
2021/04/15 11:10:29;;;;;;;17.92;4.30;;;;;;;17.55;30.42;103011.19;5098562;28;20030;-67
2021/04/15 11:13:20;;;;;;;16.88;4.20;;;;;;;16.13;32.10;103006.72;5100224;28;20070;-66
2021/04/15 11:15:48;;;;;;;17.73;4.35;;;;;;;14.64;34.02;103003.94;5097700;28;20050;-66
2021/04/15 11:18:25;;;;;;;15.57;4.30;;;;;;;13.85;35.73;103009.16;5096049;28;20417;-65
2021/04/15 11:20:52;;;;;;;15.60;4.25;;;;;;;13.09;36.51;103008.88;5101631;28;20035;-65
2021/04/15 11:23:18;;;;;;;17.60;4.63;;;;;;;12.58;37.52;103002.06;5098100;28;20031;-66
2021/04/15 11:25:49;;;;;;;16.35;3.92;;;;;;;12.16;37.53;103010.53;5099636;28;20024;-65
2021/04/15 11:28:23;;;;;;;15.40;4.30;;;;;;;11.78;38.95;103007.44;5097610;28;20020;-66
2021/04/15 11:30:52;;;;;;;20.63;4.95;;;;;;;11.26;39.21;103001.28;5099141;28;20028;-65
2021/04/15 11:33:52;;;;;;;18.77;4.60;;;;;;;11.08;40.73;103007.69;5095392;28;20035;-65
2021/04/15 11:36:27;;;;;;;16.30;4.32;;;;;;;10.64;41.12;102998.97;5052779;28;20183;-66
2021/04/15 11:39:04;;;;;;;17.88;4.80;;;;;;;10.35;42.70;103006.66;5048793;28;20044;-66
2021/04/15 11:41:33;;;;;;;18.70;5.97;;;;;;;10.06;43.17;103009.03;5051702;28;20099;-67
2021/04/15 11:44:10;;;;;;;18.25;5.43;;;;;;;10.00;43.95;103003.47;5058347;28;20550;-66
2021/04/15 11:46:52;;;;;;;20.50;5.28;;;;;;;10.02;43.70;103001.81;5057793;28;20132;-66
2021/04/15 11:49:37;;;;;;;18.00;4.80;;;;;;;10.12;42.70;102998.72;5055650;28;20095;-66
2021/04/15 11:52:20;;;;;;;16.33;4.35;;;;;;;10.12;42.68;102996.06;5053924;28;20290;-66
2021/04/15 11:55:00;;;;;;;17.65;4.90;;;;;;;9.98;43.74;102991.97;5054477;28;20032;-66
2021/04/15 11:57:40;;;;;;;19.15;5.20;;;;;;;10.03;43.72;102995.69;5050298;28;20036;-65
2021/04/15 12:00:14;;;;;;;18.50;4.72;;;;;;;10.08;44.12;102991.50;5056329;28;20047;-66
2021/04/15 12:02:50;;;;;;;17.58;4.85;;;;;;;10.20;43.02;102992.84;5051480;28;20433;-66
2021/04/15 12:05:30;;;;;;;18.35;4.75;;;;;;;10.26;43.04;102987.78;5054461;28;20132;-66
2021/04/15 12:08:00;;;;;;;16.88;4.70;;;;;;;10.58;42.61;102981.13;5056240;28;20044;-66
2021/04/15 12:10:30;;;;;;;16.58;4.68;;;;;;;10.86;41.93;102990.09;5056491;28;20028;-66
2021/04/15 12:13:03;;;;;;;19.00;5.13;;;;;;;11.20;42.29;102985.13;5094805;28;20042;-66
2021/04/15 12:15:41;;;;;;;18.60;5.03;;;;;;;11.46;41.63;102988.72;5098969;28;20486;-66
2021/04/15 12:18:18;;;;;;;19.63;5.00;;;;;;;11.66;42.15;102989.41;5098718;28;20024;-66